sensor_id;sensor_type;location;lat;lon;timestamp;pressure;altitude;pressure_sealevel;temperature;humidity
7168;BME280;3625;51.762;14.320;2024-02-26T00:00:18;99575.84;;;2.77;100.00
7168;BME280;3625;51.762;14.320;2024-02-26T00:02:48;99573.22;;;2.75;100.00
7168;BME280;3625;51.762;14.320;2024-02-26T00:05:17;99581.88;;;2.79;100.00
7168;BME280;3625;51.762;14.320;2024-02-26T00:07:46;99581.03;;;2.78;100.00
7168;BME280;3625;51.762;14.320;2024-02-26T00:10:16;99575.84;;;2.69;100.00
7168;BME280;3625;51.762;14.320;2024-02-26T00:12:45;99577.63;;;2.61;100.00
7168;BME280;3625;51.762;14.320;2024-02-26T00:15:14;99576.78;;;2.54;100.00
7168;BME280;3625;51.762;14.320;2024-02-26T00:17:42;99575.09;;;2.49;100.00
7168;BME280;3625;51.762;14.320;2024-02-26T00:20:13;99568.13;;;2.48;100.00
7168;BME280;3625;51.762;14.320;2024-02-26T00:22:42;99566.41;;;2.39;100.00
7168;BME280;3625;51.762;14.320;2024-02-26T00:25:11;99561.22;;;2.32;100.00
7168;BME280;3625;51.762;14.320;2024-02-26T00:27:40;99556.00;;;2.27;100.00
7168;BME280;3625;51.762;14.320;2024-02-26T00:30:11;99556.03;;;2.22;100.00
7168;BME280;3625;51.762;14.320;2024-02-26T00:32:40;99554.31;;;2.20;100.00
7168;BME280;3625;51.762;14.320;2024-02-26T00:35:09;99553.44;;;2.16;100.00
7168;BME280;3625;51.762;14.320;2024-02-26T00:37:40;99479.69;;;1.66;100.00
7168;BME280;3625;51.762;14.320;2024-02-26T00:40:11;99560.44;;;2.07;100.00
7168;BME280;3625;51.762;14.320;2024-02-26T00:42:40;99555.22;;;2.02;100.00
7168;BME280;3625;51.762;14.320;2024-02-26T00:45:13;99556.97;;;1.97;100.00
7168;BME280;3625;51.762;14.320;2024-02-26T00:47:42;99557.84;;;1.92;100.00
7168;BME280;3625;51.762;14.320;2024-02-26T00:50:12;99552.63;;;1.95;100.00
7168;BME280;3625;51.762;14.320;2024-02-26T00:52:43;99555.25;;;1.90;100.00
7168;BME280;3625;51.762;14.320;2024-02-26T00:55:12;99556.09;;;1.95;100.00
7168;BME280;3625;51.762;14.320;2024-02-26T00:57:40;99556.94;;;2.09;100.00
7168;BME280;3625;51.762;14.320;2024-02-26T01:00:10;99546.50;;;2.12;100.00
7168;BME280;3625;51.762;14.320;2024-02-26T01:02:39;99551.72;;;2.00;100.00
7168;BME280;3625;51.762;14.320;2024-02-26T01:05:09;99550.06;;;1.90;100.00
7168;BME280;3625;51.762;14.320;2024-02-26T01:07:38;99543.09;;;1.86;100.00
7168;BME280;3625;51.762;14.320;2024-02-26T01:10:09;99545.72;;;1.81;100.00
7168;BME280;3625;51.762;14.320;2024-02-26T01:12:38;99548.31;;;1.74;100.00
7168;BME280;3625;51.762;14.320;2024-02-26T01:15:08;99543.13;;;1.68;100.00
7168;BME280;3625;51.762;14.320;2024-02-26T01:17:37;99542.25;;;1.67;100.00
7168;BME280;3625;51.762;14.320;2024-02-26T01:20:07;99537.03;;;1.70;100.00
7168;BME280;3625;51.762;14.320;2024-02-26T01:22:37;99538.75;;;1.74;100.00
7168;BME280;3625;51.762;14.320;2024-02-26T01:25:09;99537.03;;;1.72;100.00
7168;BME280;3625;51.762;14.320;2024-02-26T01:27:39;99536.16;;;1.68;100.00
7168;BME280;3625;51.762;14.320;2024-02-26T01:30:09;99537.91;;;1.66;100.00
7168;BME280;3625;51.762;14.320;2024-02-26T01:32:38;99534.44;;;1.64;100.00
7168;BME280;3625;51.762;14.320;2024-02-26T01:35:08;99536.19;;;1.62;100.00
7168;BME280;3625;51.762;14.320;2024-02-26T01:37:39;99535.31;;;1.62;100.00
7168;BME280;3625;51.762;14.320;2024-02-26T01:40:11;99531.81;;;1.69;100.00
7168;BME280;3625;51.762;14.320;2024-02-26T01:42:45;99528.34;;;1.73;100.00
7168;BME280;3625;51.762;14.320;2024-02-26T01:45:16;99524.81;;;1.83;100.00
7168;BME280;3625;51.762;14.320;2024-02-26T01:47:51;99525.72;;;1.80;100.00
7168;BME280;3625;51.762;14.320;2024-02-26T01:50:20;99517.03;;;1.80;100.00
7168;BME280;3625;51.762;14.320;2024-02-26T01:52:51;99518.75;;;1.87;100.00
7168;BME280;3625;51.762;14.320;2024-02-26T01:55:23;99516.13;;;1.85;100.00
7168;BME280;3625;51.762;14.320;2024-02-26T01:57:53;99510.97;;;1.81;100.00
7168;BME280;3625;51.762;14.320;2024-02-26T02:00:22;99506.56;;;1.83;100.00
7168;BME280;3625;51.762;14.320;2024-02-26T02:02:51;99509.19;;;1.74;100.00
7168;BME280;3625;51.762;14.320;2024-02-26T02:05:22;99516.19;;;1.70;100.00
7168;BME280;3625;51.762;14.320;2024-02-26T02:07:52;99515.31;;;1.67;100.00
7168;BME280;3625;51.762;14.320;2024-02-26T02:10:22;99506.66;;;1.56;100.00
7168;BME280;3625;51.762;14.320;2024-02-26T02:12:53;99505.81;;;1.46;100.00
7168;BME280;3625;51.762;14.320;2024-02-26T02:15:22;99505.81;;;1.46;100.00
7168;BME280;3625;51.762;14.320;2024-02-26T02:17:51;99505.78;;;1.52;100.00
7168;BME280;3625;51.762;14.320;2024-02-26T02:20:24;99509.25;;;1.54;100.00
7168;BME280;3625;51.762;14.320;2024-02-26T02:22:54;99504.91;;;1.48;100.00
7168;BME280;3625;51.762;14.320;2024-02-26T02:25:23;99504.91;;;1.39;100.00
7168;BME280;3625;51.762;14.320;2024-02-26T02:27:53;99504.94;;;1.33;100.00
7168;BME280;3625;51.762;14.320;2024-02-26T02:30:25;99498.84;;;1.31;100.00
7168;BME280;3625;51.762;14.320;2024-02-26T02:32:56;99498.84;;;1.36;100.00
7168;BME280;3625;51.762;14.320;2024-02-26T02:35:27;99491.00;;;1.39;100.00
7168;BME280;3625;51.762;14.320;2024-02-26T02:37:57;99489.31;;;1.36;100.00
7168;BME280;3625;51.762;14.320;2024-02-26T02:40:26;99487.56;;;1.35;100.00
7168;BME280;3625;51.762;14.320;2024-02-26T02:42:55;99488.41;;;1.49;100.00
7168;BME280;3625;51.762;14.320;2024-02-26T02:45:24;99489.25;;;1.58;100.00
7168;BME280;3625;51.762;14.320;2024-02-26T02:47:53;99490.16;;;1.54;100.00
7168;BME280;3625;51.762;14.320;2024-02-26T02:50:22;99491.88;;;1.55;100.00
7168;BME280;3625;51.762;14.320;2024-02-26T02:52:52;99498.84;;;1.54;100.00
7168;BME280;3625;51.762;14.320;2024-02-26T02:55:21;99488.38;;;1.59;100.00
7168;BME280;3625;51.762;14.320;2024-02-26T02:57:50;99489.25;;;1.59;100.00
7168;BME280;3625;51.762;14.320;2024-02-26T03:00:19;99493.63;;;1.63;100.00
7168;BME280;3625;51.762;14.320;2024-02-26T03:02:50;99489.28;;;1.64;100.00
7168;BME280;3625;51.762;14.320;2024-02-26T03:05:19;99487.50;;;1.70;100.00
7168;BME280;3625;51.762;14.320;2024-02-26T03:07:48;99484.88;;;1.78;100.00
7168;BME280;3625;51.762;14.320;2024-02-26T03:10:17;99478.78;;;1.85;100.00
7168;BME280;3625;51.762;14.320;2024-02-26T03:12:46;99477.88;;;1.94;100.00
7168;BME280;3625;51.762;14.320;2024-02-26T03:15:15;99477.00;;;1.93;100.00
7168;BME280;3625;51.762;14.320;2024-02-26T03:17:44;99479.59;;;1.93;100.00
7168;BME280;3625;51.762;14.320;2024-02-26T03:20:14;99485.69;;;1.95;100.00
7168;BME280;3625;51.762;14.320;2024-02-26T03:22:43;99476.16;;;1.85;100.00
7168;BME280;3625;51.762;14.320;2024-02-26T03:25:12;99484.84;;;1.88;100.00
7168;BME280;3625;51.762;14.320;2024-02-26T03:27:42;99485.69;;;1.90;100.00
7168;BME280;3625;51.762;14.320;2024-02-26T03:30:11;99484.84;;;1.87;100.00
7168;BME280;3625;51.762;14.320;2024-02-26T03:32:40;99488.34;;;1.86;100.00
7168;BME280;3625;51.762;14.320;2024-02-26T03:35:09;99489.19;;;1.85;100.00
7168;BME280;3625;51.762;14.320;2024-02-26T03:37:38;99490.06;;;1.90;100.00
7168;BME280;3625;51.762;14.320;2024-02-26T03:40:08;99484.81;;;1.92;100.00
7168;BME280;3625;51.762;14.320;2024-02-26T03:42:37;99490.03;;;1.93;100.00
7168;BME280;3625;51.762;14.320;2024-02-26T03:45:08;99493.53;;;1.95;100.00
7168;BME280;3625;51.762;14.320;2024-02-26T03:47:38;99497.00;;;1.91;100.00
7168;BME280;3625;51.762;14.320;2024-02-26T03:50:08;99490.03;;;1.95;100.00
7168;BME280;3625;51.762;14.320;2024-02-26T03:52:37;99502.22;;;1.91;100.00
7168;BME280;3625;51.762;14.320;2024-02-26T03:55:07;99509.22;;;1.78;100.00
7168;BME280;3625;51.762;14.320;2024-02-26T03:57:36;99504.00;;;1.77;100.00
7168;BME280;3625;51.762;14.320;2024-02-26T04:00:08;99505.75;;;1.78;100.00
7168;BME280;3625;51.762;14.320;2024-02-26T04:02:37;99508.31;;;1.87;100.00
7168;BME280;3625;51.762;14.320;2024-02-26T04:05:10;99510.00;;;2.06;100.00
7168;BME280;3625;51.762;14.320;2024-02-26T04:07:39;99511.75;;;2.06;100.00
7168;BME280;3625;51.762;14.320;2024-02-26T04:10:12;99512.63;;;2.05;100.00
7168;BME280;3625;51.762;14.320;2024-02-26T04:12:41;99498.72;;;2.07;100.00
7168;BME280;3625;51.762;14.320;2024-02-26T04:15:12;99508.22;;;2.17;100.00
7168;BME280;3625;51.762;14.320;2024-02-26T04:17:41;99515.16;;;2.17;100.00
7168;BME280;3625;51.762;14.320;2024-02-26T04:20:14;99508.25;;;2.11;100.00
7168;BME280;3625;51.762;14.320;2024-02-26T04:22:44;99523.03;;;2.09;100.00
7168;BME280;3625;51.762;14.320;2024-02-26T04:25:13;99516.84;;;2.35;100.00
7168;BME280;3625;51.762;14.320;2024-02-26T04:27:42;99528.97;;;2.46;100.00
7168;BME280;3625;51.762;14.320;2024-02-26T04:30:13;99528.09;;;2.43;100.00
7168;BME280;3625;51.762;14.320;2024-02-26T04:32:42;99526.38;;;2.43;100.00
7168;BME280;3625;51.762;14.320;2024-02-26T04:35:11;99526.34;;;2.49;100.00
7168;BME280;3625;51.762;14.320;2024-02-26T04:37:39;99528.09;;;2.49;100.00
7168;BME280;3625;51.762;14.320;2024-02-26T04:40:09;99530.72;;;2.46;100.00
7168;BME280;3625;51.762;14.320;2024-02-26T04:42:38;99532.44;;;2.44;100.00
7168;BME280;3625;51.762;14.320;2024-02-26T04:45:08;99537.72;;;2.41;100.00
7168;BME280;3625;51.762;14.320;2024-02-26T04:47:38;99546.41;;;2.35;100.00
7168;BME280;3625;51.762;14.320;2024-02-26T04:50:08;99544.69;;;2.30;100.00
7168;BME280;3625;51.762;14.320;2024-02-26T04:52:37;99548.19;;;2.27;100.00
7168;BME280;3625;51.762;14.320;2024-02-26T04:55:06;99547.31;;;2.25;100.00
7168;BME280;3625;51.762;14.320;2024-02-26T04:57:35;99551.69;;;2.20;100.00
7168;BME280;3625;51.762;14.320;2024-02-26T05:00:05;99546.47;;;2.21;100.00
7168;BME280;3625;51.762;14.320;2024-02-26T05:02:34;99548.22;;;2.21;100.00
7168;BME280;3625;51.762;14.320;2024-02-26T05:05:07;99549.94;;;2.17;100.00
7168;BME280;3625;51.762;14.320;2024-02-26T05:07:40;99552.56;;;2.19;100.00
7168;BME280;3625;51.762;14.320;2024-02-26T05:10:10;99560.41;;;2.11;100.00
7168;BME280;3625;51.762;14.320;2024-02-26T05:12:38;99560.44;;;2.07;100.00
7168;BME280;3625;51.762;14.320;2024-02-26T05:15:10;99560.41;;;2.08;100.00
7168;BME280;3625;51.762;14.320;2024-02-26T05:17:43;99562.19;;;2.06;100.00
7168;BME280;3625;51.762;14.320;2024-02-26T05:20:14;99561.31;;;2.07;100.00
7168;BME280;3625;51.762;14.320;2024-02-26T05:22:43;99564.81;;;1.99;100.00
7168;BME280;3625;51.762;14.320;2024-02-26T05:25:12;99558.69;;;2.01;100.00
7168;BME280;3625;51.762;14.320;2024-02-26T05:27:44;99556.13;;;1.98;100.00
7168;BME280;3625;51.762;14.320;2024-02-26T05:30:13;99561.31;;;1.92;100.00
7168;BME280;3625;51.762;14.320;2024-02-26T05:32:42;99559.59;;;1.93;100.00
7168;BME280;3625;51.762;14.320;2024-02-26T05:35:13;99570.03;;;1.88;100.00
7168;BME280;3625;51.762;14.320;2024-02-26T05:37:42;99560.50;;;1.81;100.00
7168;BME280;3625;51.762;14.320;2024-02-26T05:40:12;99565.72;;;1.81;100.00
7168;BME280;3625;51.762;14.320;2024-02-26T05:42:41;99555.25;;;1.84;100.00
7168;BME280;3625;51.762;14.320;2024-02-26T05:45:16;99557.00;;;1.79;100.00
7168;BME280;3625;51.762;14.320;2024-02-26T05:47:45;99553.53;;;1.80;100.00
7168;BME280;3625;51.762;14.320;2024-02-26T05:50:15;99566.56;;;1.78;100.00
7168;BME280;3625;51.762;14.320;2024-02-26T05:52:44;99555.25;;;1.85;100.00
7168;BME280;3625;51.762;14.320;2024-02-26T05:55:13;99552.63;;;1.92;100.00
7168;BME280;3625;51.762;14.320;2024-02-26T05:57:42;99546.53;;;1.91;100.00
7168;BME280;3625;51.762;14.320;2024-02-26T06:00:12;99557.88;;;1.88;100.00
7168;BME280;3625;51.762;14.320;2024-02-26T06:02:42;99550.91;;;1.87;100.00
7168;BME280;3625;51.762;14.320;2024-02-26T06:05:11;99557.84;;;1.95;100.00
7168;BME280;3625;51.762;14.320;2024-02-26T06:07:41;99564.78;;;2.00;100.00
7168;BME280;3625;51.762;14.320;2024-02-26T06:10:11;99564.75;;;2.08;100.00
7168;BME280;3625;51.762;14.320;2024-02-26T06:12:41;99569.13;;;2.07;100.00
7168;BME280;3625;51.762;14.320;2024-02-26T06:15:10;99580.38;;;2.18;100.00
7168;BME280;3625;51.762;14.320;2024-02-26T06:17:39;99569.09;;;2.22;100.00
7168;BME280;3625;51.762;14.320;2024-02-26T06:20:09;99568.25;;;2.16;100.00
7168;BME280;3625;51.762;14.320;2024-02-26T06:22:42;99579.53;;;2.24;100.00
7168;BME280;3625;51.762;14.320;2024-02-26T06:25:10;99585.59;;;2.27;100.00
7168;BME280;3625;51.762;14.320;2024-02-26T06:27:39;99582.09;;;2.30;100.00
7168;BME280;3625;51.762;14.320;2024-02-26T06:30:09;99581.22;;;2.31;100.00
7168;BME280;3625;51.762;14.320;2024-02-26T06:32:39;99582.09;;;2.32;100.00
7168;BME280;3625;51.762;14.320;2024-02-26T06:35:08;99583.81;;;2.42;100.00
7168;BME280;3625;51.762;14.320;2024-02-26T06:37:40;99581.16;;;2.45;100.00
7168;BME280;3625;51.762;14.320;2024-02-26T06:40:09;99588.97;;;2.52;100.00
7168;BME280;3625;51.762;14.320;2024-02-26T06:42:38;99582.88;;;2.55;100.00
7168;BME280;3625;51.762;14.320;2024-02-26T06:45:08;99585.50;;;2.56;100.00
7168;BME280;3625;51.762;14.320;2024-02-26T06:47:37;99586.31;;;2.60;100.00
7168;BME280;3625;51.762;14.320;2024-02-26T06:50:06;99583.72;;;2.64;100.00
7168;BME280;3625;51.762;14.320;2024-02-26T06:52:35;99584.56;;;2.68;100.00
7168;BME280;3625;51.762;14.320;2024-02-26T06:55:06;99584.53;;;2.71;100.00
7168;BME280;3625;51.762;14.320;2024-02-26T06:57:36;99594.06;;;2.78;100.00
7168;BME280;3625;51.762;14.320;2024-02-26T07:00:05;99593.16;;;2.87;100.00
7168;BME280;3625;51.762;14.320;2024-02-26T07:02:34;99591.41;;;2.92;100.00
7168;BME280;3625;51.762;14.320;2024-02-26T07:05:07;99595.72;;;2.96;100.00
7168;BME280;3625;51.762;14.320;2024-02-26T07:07:36;99594.81;;;3.03;100.00
7168;BME280;3625;51.762;14.320;2024-02-26T07:10:08;99595.66;;;3.11;100.00
7168;BME280;3625;51.762;14.320;2024-02-26T07:12:37;99597.34;;;3.20;100.00
7168;BME280;3625;51.762;14.320;2024-02-26T07:15:06;99603.41;;;3.25;100.00
7168;BME280;3625;51.762;14.320;2024-02-26T07:17:36;99599.03;;;3.28;100.00
7168;BME280;3625;51.762;14.320;2024-02-26T07:20:06;99594.56;;;3.46;100.00
7168;BME280;3625;51.762;14.320;2024-02-26T07:22:37;99590.91;;;3.63;100.00
7168;BME280;3625;51.762;14.320;2024-02-26T07:25:07;99598.63;;;3.80;100.00
7168;BME280;3625;51.762;14.320;2024-02-26T07:27:39;99584.63;;;3.86;100.00
7168;BME280;3625;51.762;14.320;2024-02-26T07:30:10;99588.81;;;4.03;100.00
7168;BME280;3625;51.762;14.320;2024-02-26T07:32:39;99595.69;;;4.15;100.00
7168;BME280;3625;51.762;14.320;2024-02-26T07:35:08;99606.00;;;4.27;100.00
7168;BME280;3625;51.762;14.320;2024-02-26T07:37:37;99598.06;;;4.36;100.00
7168;BME280;3625;51.762;14.320;2024-02-26T07:40:09;99597.00;;;4.51;100.00
7168;BME280;3625;51.762;14.320;2024-02-26T07:42:38;99594.38;;;4.52;100.00
7168;BME280;3625;51.762;14.320;2024-02-26T07:45:07;99595.06;;;4.68;100.00
7168;BME280;3625;51.762;14.320;2024-02-26T07:47:36;99595.75;;;4.82;100.00
7168;BME280;3625;51.762;14.320;2024-02-26T07:50:09;99601.78;;;4.89;100.00
7168;BME280;3625;51.762;14.320;2024-02-26T07:52:39;99597.22;;;5.02;100.00
7168;BME280;3625;51.762;14.320;2024-02-26T07:55:11;99604.19;;;5.06;100.00
7168;BME280;3625;51.762;14.320;2024-02-26T07:57:42;99547.00;;;4.72;100.00
7168;BME280;3625;51.762;14.320;2024-02-26T08:00:11;99602.19;;;5.21;100.00
7168;BME280;3625;51.762;14.320;2024-02-26T08:02:44;99604.66;;;5.32;100.00
7168;BME280;3625;51.762;14.320;2024-02-26T08:05:13;99607.16;;;5.41;100.00
7168;BME280;3625;51.762;14.320;2024-02-26T08:07:42;99607.88;;;5.51;100.00
7168;BME280;3625;51.762;14.320;2024-02-26T08:10:12;99603.22;;;5.69;100.00
7168;BME280;3625;51.762;14.320;2024-02-26T08:12:41;99606.75;;;5.68;100.00
7168;BME280;3625;51.762;14.320;2024-02-26T08:15:10;99606.66;;;5.73;100.00
7168;BME280;3625;51.762;14.320;2024-02-26T08:17:39;99601.47;;;5.70;100.00
7168;BME280;3625;51.762;14.320;2024-02-26T08:20:09;99602.28;;;5.72;100.00
7168;BME280;3625;51.762;14.320;2024-02-26T08:22:38;99607.31;;;5.87;100.00
7168;BME280;3625;51.762;14.320;2024-02-26T08:25:07;99602.84;;;5.94;100.00
7168;BME280;3625;51.762;14.320;2024-02-26T08:27:38;99600.13;;;5.97;100.00
7168;BME280;3625;51.762;14.320;2024-02-26T08:30:10;99604.63;;;5.90;100.00
7168;BME280;3625;51.762;14.320;2024-02-26T08:32:41;99601.00;;;5.97;100.00
7168;BME280;3625;51.762;14.320;2024-02-26T08:35:10;99606.22;;;6.00;100.00
7168;BME280;3625;51.762;14.320;2024-02-26T08:37:39;99616.03;;;5.89;100.00
7168;BME280;3625;51.762;14.320;2024-02-26T08:40:08;99607.50;;;5.75;100.00
7168;BME280;3625;51.762;14.320;2024-02-26T08:42:40;99605.75;;;5.74;100.00
7168;BME280;3625;51.762;14.320;2024-02-26T08:45:09;99607.31;;;5.86;100.00
7168;BME280;3625;51.762;14.320;2024-02-26T08:47:39;99615.22;;;5.84;100.00
7168;BME280;3625;51.762;14.320;2024-02-26T08:50:08;99612.44;;;5.96;100.00
7168;BME280;3625;51.762;14.320;2024-02-26T08:52:39;99608.69;;;6.10;100.00
7168;BME280;3625;51.762;14.320;2024-02-26T08:55:09;99611.13;;;6.20;100.00
7168;BME280;3625;51.762;14.320;2024-02-26T08:57:39;99618.84;;;6.28;100.00
7168;BME280;3625;51.762;14.320;2024-02-26T09:00:09;99619.56;;;6.37;100.00
7168;BME280;3625;51.762;14.320;2024-02-26T09:02:38;99620.25;;;6.47;100.00
7168;BME280;3625;51.762;14.320;2024-02-26T09:05:08;99622.66;;;6.58;100.00
7168;BME280;3625;51.762;14.320;2024-02-26T09:07:37;99630.16;;;6.77;100.00
7168;BME280;3625;51.762;14.320;2024-02-26T09:10:07;99630.97;;;6.81;100.00
7168;BME280;3625;51.762;14.320;2024-02-26T09:12:39;99635.50;;;6.74;100.00
7168;BME280;3625;51.762;14.320;2024-02-26T09:15:09;99637.13;;;6.78;100.00
7168;BME280;3625;51.762;14.320;2024-02-26T09:17:38;99640.28;;;6.96;100.00
7168;BME280;3625;51.762;14.320;2024-02-26T09:20:07;99626.72;;;7.15;100.00
7168;BME280;3625;51.762;14.320;2024-02-26T09:22:37;99624.63;;;7.31;100.00
7168;BME280;3625;51.762;14.320;2024-02-26T09:25:07;99625.09;;;7.48;100.00
7168;BME280;3625;51.762;14.320;2024-02-26T09:27:36;99623.88;;;7.63;100.00
7168;BME280;3625;51.762;14.320;2024-02-26T09:30:12;99628.91;;;7.72;100.00
7168;BME280;3625;51.762;14.320;2024-02-26T09:32:41;99628.66;;;7.83;100.00
7168;BME280;3625;51.762;14.320;2024-02-26T09:35:14;99631.00;;;7.95;100.00
7168;BME280;3625;51.762;14.320;2024-02-26T09:37:43;99636.88;;;8.05;100.00
7168;BME280;3625;51.762;14.320;2024-02-26T09:40:12;99629.41;;;8.22;100.00
7168;BME280;3625;51.762;14.320;2024-02-26T09:42:44;99633.47;;;8.37;100.00
7168;BME280;3625;51.762;14.320;2024-02-26T09:45:18;99624.81;;;8.31;100.00
7168;BME280;3625;51.762;14.320;2024-02-26T09:47:48;99630.34;;;8.21;100.00
7168;BME280;3625;51.762;14.320;2024-02-26T09:50:18;99626.66;;;8.28;100.00
7168;BME280;3625;51.762;14.320;2024-02-26T09:52:51;99619.53;;;8.31;100.00
7168;BME280;3625;51.762;14.320;2024-02-26T09:55:20;99629.09;;;8.36;100.00
7168;BME280;3625;51.762;14.320;2024-02-26T09:57:52;99630.47;;;8.50;100.00
7168;BME280;3625;51.762;14.320;2024-02-26T10:00:23;99626.88;;;8.53;100.00
7168;BME280;3625;51.762;14.320;2024-02-26T10:02:55;99628.91;;;8.43;100.00
7168;BME280;3625;51.762;14.320;2024-02-26T10:05:26;99620.00;;;8.47;100.00
7168;BME280;3625;51.762;14.320;2024-02-26T10:07:56;99621.72;;;8.48;100.00
7168;BME280;3625;51.762;14.320;2024-02-26T10:10:29;99618.97;;;8.53;100.00
7168;BME280;3625;51.762;14.320;2024-02-26T10:13:00;99623.13;;;8.61;100.00
7168;BME280;3625;51.762;14.320;2024-02-26T10:15:30;99616.72;;;8.70;100.00
7168;BME280;3625;51.762;14.320;2024-02-26T10:18:00;99619.28;;;8.73;100.00
7168;BME280;3625;51.762;14.320;2024-02-26T10:20:29;99623.56;;;8.77;100.00
7168;BME280;3625;51.762;14.320;2024-02-26T10:23:02;99625.28;;;8.78;100.00
7168;BME280;3625;51.762;14.320;2024-02-26T10:25:31;99627.78;;;8.83;100.00
7168;BME280;3625;51.762;14.320;2024-02-26T10:28:01;99630.34;;;8.86;100.00
7168;BME280;3625;51.762;14.320;2024-02-26T10:30:33;99633.44;;;9.00;100.00
7168;BME280;3625;51.762;14.320;2024-02-26T10:33:05;99636.88;;;9.03;100.00
7168;BME280;3625;51.762;14.320;2024-02-26T10:35:36;99632.53;;;9.01;100.00
7168;BME280;3625;51.762;14.320;2024-02-26T10:38:08;99627.03;;;9.08;100.00
7168;BME280;3625;51.762;14.320;2024-02-26T10:40:36;99627.97;;;9.07;100.00
7168;BME280;3625;51.762;14.320;2024-02-26T10:43:05;99626.03;;;9.13;100.00
7168;BME280;3625;51.762;14.320;2024-02-26T10:45:37;99630.69;;;9.34;100.00
7168;BME280;3625;51.762;14.320;2024-02-26T10:48:12;99626.69;;;9.49;100.00
7168;BME280;3625;51.762;14.320;2024-02-26T10:50:42;99626.78;;;9.45;100.00
7168;BME280;3625;51.762;14.320;2024-02-26T10:53:15;99631.66;;;9.59;100.00
7168;BME280;3625;51.762;14.320;2024-02-26T10:55:52;99637.03;;;9.56;100.00
7168;BME280;3625;51.762;14.320;2024-02-26T10:58:23;99632.19;;;9.69;100.00
7168;BME280;3625;51.762;14.320;2024-02-26T11:00:55;99636.19;;;9.82;100.00
7168;BME280;3625;51.762;14.320;2024-02-26T11:03:25;99637.50;;;9.95;100.00
7168;BME280;3625;51.762;14.320;2024-02-26T11:05:55;99638.97;;;10.04;100.00
7168;BME280;3625;51.762;14.320;2024-02-26T11:08:26;99637.47;;;9.97;100.00
7168;BME280;3625;51.762;14.320;2024-02-26T11:10:57;99633.53;;;10.10;100.00
7168;BME280;3625;51.762;14.320;2024-02-26T11:13:28;99635.06;;;10.15;100.00
7168;BME280;3625;51.762;14.320;2024-02-26T11:16:04;99575.13;;;9.91;100.00
7168;BME280;3625;51.762;14.320;2024-02-26T11:18:33;99640.16;;;10.48;100.00
7168;BME280;3625;51.762;14.320;2024-02-26T11:21:03;99636.47;;;10.77;100.00
7168;BME280;3625;51.762;14.320;2024-02-26T11:23:33;99630.63;;;10.92;100.00
7168;BME280;3625;51.762;14.320;2024-02-26T11:26:05;99633.50;;;10.86;100.00
7168;BME280;3625;51.762;14.320;2024-02-26T11:28:35;99634.09;;;10.94;100.00
7168;BME280;3625;51.762;14.320;2024-02-26T11:31:06;99625.47;;;11.12;100.00
7168;BME280;3625;51.762;14.320;2024-02-26T11:33:35;99625.69;;;11.29;100.00
7168;BME280;3625;51.762;14.320;2024-02-26T11:36:08;99625.84;;;11.25;100.00
7168;BME280;3625;51.762;14.320;2024-02-26T11:38:38;99630.69;;;11.14;100.00
7168;BME280;3625;51.762;14.320;2024-02-26T11:41:08;99624.53;;;11.13;100.00
7168;BME280;3625;51.762;14.320;2024-02-26T11:43:53;99628.38;;;11.28;100.00
7168;BME280;3625;51.762;14.320;2024-02-26T11:46:27;99619.88;;;11.20;100.00
7168;BME280;3625;51.762;14.320;2024-02-26T11:48:59;99622.63;;;11.62;100.00
7168;BME280;3625;51.762;14.320;2024-02-26T11:51:33;99623.78;;;11.78;100.00
7168;BME280;3625;51.762;14.320;2024-02-26T11:54:03;99634.78;;;11.67;100.00
7168;BME280;3625;51.762;14.320;2024-02-26T11:56:34;99562.38;;;11.23;100.00
7168;BME280;3625;51.762;14.320;2024-02-26T11:59:09;99622.38;;;11.68;100.00
7168;BME280;3625;51.762;14.320;2024-02-26T12:01:41;99616.88;;;11.51;100.00
7168;BME280;3625;51.762;14.320;2024-02-26T12:04:18;99625.88;;;11.68;100.00
7168;BME280;3625;51.762;14.320;2024-02-26T12:06:51;99631.53;;;12.04;100.00
7168;BME280;3625;51.762;14.320;2024-02-26T12:09:34;99629.81;;;11.82;100.00
7168;BME280;3625;51.762;14.320;2024-02-26T12:12:06;99635.81;;;11.63;100.00
7168;BME280;3625;51.762;14.320;2024-02-26T12:14:38;99635.13;;;11.82;100.00
7168;BME280;3625;51.762;14.320;2024-02-26T12:17:18;99633.78;;;11.70;100.00
7168;BME280;3625;51.762;14.320;2024-02-26T12:19:47;99642.09;;;11.61;100.00
7168;BME280;3625;51.762;14.320;2024-02-26T12:22:16;99637.34;;;11.92;100.00
7168;BME280;3625;51.762;14.320;2024-02-26T12:24:45;99631.34;;;12.29;100.00
7168;BME280;3625;51.762;14.320;2024-02-26T12:27:14;99645.56;;;12.69;100.00
7168;BME280;3625;51.762;14.320;2024-02-26T12:29:43;99646.16;;;12.75;100.00
7168;BME280;3625;51.762;14.320;2024-02-26T12:32:14;99642.03;;;12.68;100.00
7168;BME280;3625;51.762;14.320;2024-02-26T12:34:42;99647.72;;;13.00;99.49
7168;BME280;3625;51.762;14.320;2024-02-26T12:37:13;99653.25;;;12.75;98.79
7168;BME280;3625;51.762;14.320;2024-02-26T12:39:41;99624.66;;;12.41;99.43
7168;BME280;3625;51.762;14.320;2024-02-26T12:42:10;99647.56;;;12.43;100.00
7168;BME280;3625;51.762;14.320;2024-02-26T12:44:39;99636.75;;;12.68;100.00
7168;BME280;3625;51.762;14.320;2024-02-26T12:47:08;99636.88;;;12.65;99.18
7168;BME280;3625;51.762;14.320;2024-02-26T12:49:42;99638.38;;;12.91;100.00
7168;BME280;3625;51.762;14.320;2024-02-26T12:52:13;99632.75;;;13.17;98.66
7168;BME280;3625;51.762;14.320;2024-02-26T12:54:42;99634.38;;;12.62;100.00
7168;BME280;3625;51.762;14.320;2024-02-26T12:57:11;99632.81;;;12.57;100.00
7168;BME280;3625;51.762;14.320;2024-02-26T12:59:40;99628.50;;;12.74;100.00
7168;BME280;3625;51.762;14.320;2024-02-26T13:02:09;99632.47;;;12.84;97.52
7168;BME280;3625;51.762;14.320;2024-02-26T13:04:41;99651.03;;;13.05;95.03
7168;BME280;3625;51.762;14.320;2024-02-26T13:07:11;99641.84;;;13.12;96.52
7168;BME280;3625;51.762;14.320;2024-02-26T13:09:40;99644.47;;;13.13;92.87
7168;BME280;3625;51.762;14.320;2024-02-26T13:12:10;99651.28;;;13.19;93.98
7168;BME280;3625;51.762;14.320;2024-02-26T13:14:40;99648.84;;;13.33;93.96
7168;BME280;3625;51.762;14.320;2024-02-26T13:17:10;99653.59;;;13.64;90.23
7168;BME280;3625;51.762;14.320;2024-02-26T13:19:50;99658.63;;;13.33;90.64
7168;BME280;3625;51.762;14.320;2024-02-26T13:22:21;99647.44;;;13.64;90.33
7168;BME280;3625;51.762;14.320;2024-02-26T13:24:55;99652.31;;;13.73;87.31